Check out our new PWSWeather beta!
PWSweather.com
Personal Weather Stations
Station Observations
79674
AfterstegDE 79674

AfterstegDE 79674

Lat: 47.84344, Lon: 7.92844

Elevation: 809

Station Type: Davis Vantage 2 Aktive

www.wetter-aftersteg.de

High Low Average
Temperature 37.6°F3.1°C 30.9°F-0.6°C 34.3°F1.3°C
Dew Point 36.5°F2.5°C 29.5°F-1.4°C 33.2°F0.7°C
Winds 0.9 mph 1.4 kmh Calm Calm Calm SWCalm SW
Wind Gusts 2.9 mph4.7 kmh -- --
Humidity 97% 94% 96%
Pressure 29.37 in994.6 mb 29.21 in989.2 mb -
Precipitation 0.35 in8.9 mm - -
Hour Temp Dew Point Humidity Winds Wind Gusts Pressure Precip Precip Rate Daily Precip Total
12:02 AM 29.5°F-1.4°C 28.0°F-2.2°C 94% Calm Calm -- 29.37 in994.6 mb - 0.00 in0.0 mm 0.24 in6.1 mm
12:07 AM 29.7°F-1.3°C 28.2°F-2.1°C 94% Calm Calm -- 29.37 in994.6 mb - 0.00 in0.0 mm 0.24 in6.1 mm
12:12 AM 29.8°F-1.2°C 28.4°F-2.0°C 94% Calm Calm -- 29.37 in994.6 mb - 0.00 in0.0 mm 0.24 in6.1 mm
12:17 AM 30.0°F-1.1°C 28.6°F-1.9°C 94% Calm Calm -- 29.37 in994.6 mb - 0.00 in0.0 mm 0.00 in0.0 mm
12:22 AM 30.2°F-1.0°C 28.8°F-1.8°C 94% Calm Calm -- 29.37 in994.6 mb - 0.00 in0.0 mm 0.00 in0.0 mm
12:27 AM 30.6°F-0.8°C 29.1°F-1.6°C 94% Calm Calm -- 29.37 in994.6 mb - 0.00 in0.0 mm 0.00 in0.0 mm
12:32 AM 30.7°F-0.7°C 29.3°F-1.5°C 94% Calm Calm -- 29.37 in994.6 mb - 0.00 in0.0 mm 0.00 in0.0 mm
12:37 AM 30.7°F-0.7°C 29.3°F-1.5°C 94% Calm Calm -- 29.37 in994.6 mb - 0.00 in0.0 mm 0.00 in0.0 mm
12:42 AM 30.7°F-0.7°C 29.3°F-1.5°C 94% Calm Calm -- 29.36 in994.2 mb - 0.00 in0.0 mm 0.00 in0.0 mm
12:47 AM 30.7°F-0.7°C 29.3°F-1.5°C 94% Calm Calm -- 29.36 in994.2 mb - 0.00 in0.0 mm 0.00 in0.0 mm
12:52 AM 30.9°F-0.6°C 29.5°F-1.4°C 94% Calm Calm -- 29.36 in994.2 mb - 0.00 in0.0 mm 0.00 in0.0 mm
12:57 AM 30.9°F-0.6°C 29.5°F-1.4°C 94% Calm Calm -- 29.37 in994.6 mb - 0.00 in0.0 mm 0.00 in0.0 mm
01:02 AM 30.9°F-0.6°C 29.5°F-1.4°C 94% Calm Calm -- 29.36 in994.2 mb - 0.00 in0.0 mm 0.00 in0.0 mm
01:07 AM 31.1°F-0.5°C 29.7°F-1.3°C 94% Calm Calm -- 29.37 in994.6 mb - 0.00 in0.0 mm 0.00 in0.0 mm
01:12 AM 31.3°F-0.4°C 30.0°F-1.1°C 95% Calm Calm -- 29.37 in994.6 mb - 0.00 in0.0 mm 0.00 in0.0 mm
01:17 AM 31.5°F-0.3°C 30.2°F-1.0°C 95% Calm Calm -- 29.37 in994.6 mb - 0.00 in0.0 mm 0.00 in0.0 mm
01:22 AM 31.5°F-0.3°C 30.2°F-1.0°C 95% Calm Calm -- 29.36 in994.2 mb - 0.00 in0.0 mm 0.00 in0.0 mm
01:27 AM 31.6°F-0.2°C 30.4°F-0.9°C 95% Calm Calm -- 29.36 in994.2 mb - 0.00 in0.0 mm 0.00 in0.0 mm
01:32 AM 31.6°F-0.2°C 30.4°F-0.9°C 95% Calm Calm -- 29.36 in994.2 mb - 0.00 in0.0 mm 0.00 in0.0 mm
01:37 AM 31.8°F-0.1°C 30.6°F-0.8°C 95% Calm Calm -- 29.36 in994.2 mb - 0.00 in0.0 mm 0.00 in0.0 mm
01:42 AM 32.0°F0.0°C 30.7°F-0.7°C 95% Calm Calm -- 29.36 in994.2 mb - 0.00 in0.0 mm 0.00 in0.0 mm
01:47 AM 32.0°F0.0°C 30.7°F-0.7°C 95% Calm Calm -- 29.36 in994.2 mb - 0.00 in0.0 mm 0.00 in0.0 mm
01:52 AM 32.2°F0.1°C 30.9°F-0.6°C 95% Calm Calm -- 29.36 in994.2 mb - 0.00 in0.0 mm 0.00 in0.0 mm
01:57 AM 32.2°F0.1°C 30.9°F-0.6°C 95% Calm Calm -- 29.36 in994.2 mb - 0.00 in0.0 mm 0.00 in0.0 mm
02:02 AM 32.2°F0.1°C 30.9°F-0.6°C 95% Calm Calm -- 29.36 in994.2 mb - 0.00 in0.0 mm 0.00 in0.0 mm
02:07 AM 32.4°F0.2°C 31.1°F-0.5°C 95% Calm Calm -- 29.36 in994.2 mb - 0.00 in0.0 mm 0.00 in0.0 mm
02:12 AM 32.4°F0.2°C 31.1°F-0.5°C 95% Calm Calm -- 29.36 in994.2 mb - 0.00 in0.0 mm 0.00 in0.0 mm
02:17 AM 32.4°F0.2°C 31.1°F-0.5°C 95% Calm Calm -- 29.36 in994.2 mb - 0.00 in0.0 mm 0.00 in0.0 mm
02:22 AM 32.4°F0.2°C 31.1°F-0.5°C 95% Calm Calm -- 29.36 in994.2 mb - 0.00 in0.0 mm 0.00 in0.0 mm
02:27 AM 32.4°F0.2°C 31.1°F-0.5°C 95% Calm Calm -- 29.36 in994.2 mb - 0.00 in0.0 mm 0.00 in0.0 mm
02:32 AM 32.4°F0.2°C 31.1°F-0.5°C 95% Calm Calm -- 29.36 in994.2 mb - 0.00 in0.0 mm 0.00 in0.0 mm
02:37 AM 32.4°F0.2°C 31.1°F-0.5°C 95% Calm Calm -- 29.36 in994.2 mb - 0.00 in0.0 mm 0.00 in0.0 mm
02:42 AM 32.4°F0.2°C 31.1°F-0.5°C 95% Calm Calm -- 29.36 in994.2 mb - 0.00 in0.0 mm 0.00 in0.0 mm
02:47 AM 32.5°F0.3°C 31.3°F-0.4°C 95% Calm Calm -- 29.36 in994.2 mb - 0.00 in0.0 mm 0.00 in0.0 mm
02:52 AM 32.5°F0.3°C 31.3°F-0.4°C 95% Calm Calm -- 29.36 in994.2 mb - 0.00 in0.0 mm 0.00 in0.0 mm
02:57 AM 32.7°F0.4°C 31.5°F-0.3°C 95% Calm Calm -- 29.36 in994.2 mb - 0.00 in0.0 mm 0.00 in0.0 mm
03:02 AM 32.9°F0.5°C 31.6°F-0.2°C 95% Calm Calm -- 29.36 in994.2 mb - 0.00 in0.0 mm 0.00 in0.0 mm
03:07 AM 33.1°F0.6°C 31.8°F-0.1°C 95% Calm Calm -- 29.35 in993.9 mb - 0.00 in0.0 mm 0.00 in0.0 mm
03:12 AM 33.1°F0.6°C 31.8°F-0.1°C 95% Calm Calm -- 29.36 in994.2 mb - 0.00 in0.0 mm 0.00 in0.0 mm
03:17 AM 33.3°F0.7°C 32.2°F0.1°C 96% Calm Calm -- 29.35 in993.9 mb - 0.00 in0.0 mm 0.00 in0.0 mm
03:22 AM 33.3°F0.7°C 32.0°F0.0°C 95% Calm Calm -- 29.36 in994.2 mb - 0.00 in0.0 mm 0.00 in0.0 mm
03:27 AM 33.3°F0.7°C 32.0°F0.0°C 95% Calm Calm -- 29.36 in994.2 mb - 0.00 in0.0 mm 0.00 in0.0 mm
03:32 AM 33.1°F0.6°C 31.8°F-0.1°C 95% Calm Calm -- 29.35 in993.9 mb - 0.00 in0.0 mm 0.00 in0.0 mm
03:37 AM 33.1°F0.6°C 31.8°F-0.1°C 95% Calm Calm -- 29.36 in994.2 mb - 0.00 in0.0 mm 0.00 in0.0 mm
03:42 AM 33.1°F0.6°C 31.8°F-0.1°C 95% Calm Calm -- 29.36 in994.2 mb - 0.00 in0.0 mm 0.00 in0.0 mm
03:47 AM 33.1°F0.6°C 31.8°F-0.1°C 95% Calm Calm -- 29.35 in993.9 mb - 0.00 in0.0 mm 0.00 in0.0 mm
03:52 AM 32.9°F0.5°C 31.6°F-0.2°C 95% Calm Calm -- 29.35 in993.9 mb - 0.00 in0.0 mm 0.00 in0.0 mm
03:57 AM 32.9°F0.5°C 31.6°F-0.2°C 95% Calm Calm -- 29.35 in993.9 mb - 0.00 in0.0 mm 0.00 in0.0 mm
04:02 AM 32.9°F0.5°C 31.6°F-0.2°C 95% Calm Calm -- 29.34 in993.6 mb - 0.00 in0.0 mm 0.00 in0.0 mm
04:07 AM 33.1°F0.6°C 31.8°F-0.1°C 95% Calm Calm -- 29.35 in993.9 mb - 0.00 in0.0 mm 0.00 in0.0 mm
04:12 AM 32.9°F0.5°C 31.6°F-0.2°C 95% Calm Calm -- 29.34 in993.6 mb - 0.00 in0.0 mm 0.00 in0.0 mm
04:17 AM 33.1°F0.6°C 32.0°F0.0°C 96% Calm Calm -- 29.34 in993.6 mb - 0.00 in0.0 mm 0.00 in0.0 mm
04:22 AM 33.1°F0.6°C 32.0°F0.0°C 96% Calm Calm -- 29.34 in993.6 mb - 0.00 in0.0 mm 0.00 in0.0 mm
04:27 AM 33.3°F0.7°C 32.2°F0.1°C 96% Calm Calm -- 29.34 in993.6 mb - 0.00 in0.0 mm 0.00 in0.0 mm
04:32 AM 33.4°F0.8°C 32.4°F0.2°C 96% Calm Calm -- 29.34 in993.6 mb - 0.00 in0.0 mm 0.00 in0.0 mm
04:37 AM 33.3°F0.7°C 32.0°F0.0°C 95% Calm Calm -- 29.34 in993.6 mb - 0.00 in0.0 mm 0.00 in0.0 mm
04:42 AM 33.3°F0.7°C 32.2°F0.1°C 96% Calm Calm -- 29.34 in993.6 mb - 0.00 in0.0 mm 0.00 in0.0 mm
04:47 AM 33.3°F0.7°C 32.2°F0.1°C 96% Calm Calm -- 29.34 in993.6 mb - 0.00 in0.0 mm 0.00 in0.0 mm
04:52 AM 33.3°F0.7°C 32.2°F0.1°C 96% Calm Calm -- 29.34 in993.6 mb - 0.00 in0.0 mm 0.00 in0.0 mm
04:57 AM 33.4°F0.8°C 32.4°F0.2°C 96% Calm Calm -- 29.34 in993.6 mb - 0.00 in0.0 mm 0.00 in0.0 mm
05:02 AM 33.4°F0.8°C 32.4°F0.2°C 96% Calm Calm -- 29.34 in993.6 mb - 0.00 in0.0 mm 0.00 in0.0 mm
05:07 AM 33.4°F0.8°C 32.4°F0.2°C 96% Calm Calm -- 29.35 in993.9 mb - 0.00 in0.0 mm 0.00 in0.0 mm
05:12 AM 33.4°F0.8°C 32.4°F0.2°C 96% Calm Calm -- 29.35 in993.9 mb - 0.00 in0.0 mm 0.00 in0.0 mm
05:17 AM 33.4°F0.8°C 32.4°F0.2°C 96% Calm Calm -- 29.35 in993.9 mb - 0.00 in0.0 mm 0.00 in0.0 mm
05:22 AM 33.4°F0.8°C 32.4°F0.2°C 96% Calm Calm -- 29.35 in993.9 mb - 0.00 in0.0 mm 0.00 in0.0 mm
05:27 AM 33.4°F0.8°C 32.4°F0.2°C 96% Calm Calm -- 29.35 in993.9 mb - 0.00 in0.0 mm 0.00 in0.0 mm
05:32 AM 33.3°F0.7°C 32.2°F0.1°C 96% Calm Calm -- 29.35 in993.9 mb - 0.00 in0.0 mm 0.00 in0.0 mm
05:37 AM 33.4°F0.8°C 32.4°F0.2°C 96% Calm Calm -- 29.34 in993.6 mb - 0.00 in0.0 mm 0.00 in0.0 mm
05:42 AM 33.4°F0.8°C 32.4°F0.2°C 96% Calm Calm -- 29.34 in993.6 mb - 0.00 in0.0 mm 0.00 in0.0 mm
05:47 AM 33.3°F0.7°C 32.2°F0.1°C 96% Calm Calm -- 29.34 in993.6 mb - 0.00 in0.0 mm 0.00 in0.0 mm
05:52 AM 33.4°F0.8°C 32.4°F0.2°C 96% Calm Calm -- 29.33 in993.2 mb - 0.00 in0.0 mm 0.00 in0.0 mm
05:57 AM 33.4°F0.8°C 32.4°F0.2°C 96% Calm Calm -- 29.33 in993.2 mb - 0.00 in0.0 mm 0.00 in0.0 mm
06:02 AM 33.4°F0.8°C 32.4°F0.2°C 96% Calm Calm -- 29.34 in993.6 mb - 0.00 in0.0 mm 0.00 in0.0 mm
06:07 AM 33.4°F0.8°C 32.4°F0.2°C 96% Calm Calm -- 29.34 in993.6 mb - 0.00 in0.0 mm 0.00 in0.0 mm
06:12 AM 33.4°F0.8°C 32.4°F0.2°C 96% Calm Calm -- 29.34 in993.6 mb - 0.00 in0.0 mm 0.00 in0.0 mm
06:17 AM 33.4°F0.8°C 32.4°F0.2°C 96% Calm Calm -- 29.34 in993.6 mb - 0.00 in0.0 mm 0.00 in0.0 mm
06:22 AM 33.4°F0.8°C 32.4°F0.2°C 96% Calm Calm -- 29.34 in993.6 mb - 0.00 in0.0 mm 0.01 in0.3 mm
06:27 AM 33.4°F0.8°C 32.4°F0.2°C 96% Calm Calm -- 29.34 in993.6 mb - 0.00 in0.0 mm 0.01 in0.3 mm
06:32 AM 33.6°F0.9°C 32.5°F0.3°C 96% Calm Calm -- 29.34 in993.6 mb - 0.00 in0.0 mm 0.01 in0.3 mm
06:37 AM 33.4°F0.8°C 32.4°F0.2°C 96% Calm Calm -- 29.34 in993.6 mb - 0.00 in0.0 mm 0.01 in0.3 mm
06:42 AM 33.6°F0.9°C 32.5°F0.3°C 96% Calm Calm -- 29.34 in993.6 mb - 0.00 in0.0 mm 0.01 in0.3 mm
06:47 AM 33.6°F0.9°C 32.5°F0.3°C 96% Calm Calm -- 29.34 in993.6 mb - 0.00 in0.0 mm 0.01 in0.3 mm
06:52 AM 33.6°F0.9°C 32.5°F0.3°C 96% Calm Calm -- 29.34 in993.6 mb - 0.00 in0.0 mm 0.01 in0.3 mm
06:57 AM 33.4°F0.8°C 32.4°F0.2°C 96% Calm Calm -- 29.34 in993.6 mb - 0.00 in0.0 mm 0.01 in0.3 mm
07:02 AM 33.6°F0.9°C 32.5°F0.3°C 96% Calm Calm -- 29.34 in993.6 mb - 0.00 in0.0 mm 0.01 in0.3 mm
07:07 AM 33.6°F0.9°C 32.5°F0.3°C 96% Calm Calm -- 29.34 in993.6 mb - 0.00 in0.0 mm 0.01 in0.3 mm
07:12 AM 33.4°F0.8°C 32.4°F0.2°C 96% Calm Calm -- 29.34 in993.6 mb - 0.00 in0.0 mm 0.01 in0.3 mm
07:17 AM 33.4°F0.8°C 32.4°F0.2°C 96% Calm Calm -- 29.34 in993.6 mb - 0.00 in0.0 mm 0.01 in0.3 mm
07:22 AM 33.6°F0.9°C 32.5°F0.3°C 96% Calm Calm -- 29.34 in993.6 mb - 0.00 in0.0 mm 0.01 in0.3 mm
07:27 AM 33.6°F0.9°C 32.5°F0.3°C 96% Calm Calm -- 29.34 in993.6 mb - 0.00 in0.0 mm 0.01 in0.3 mm
07:32 AM 33.6°F0.9°C 32.5°F0.3°C 96% Calm Calm -- 29.34 in993.6 mb - 0.00 in0.0 mm 0.01 in0.3 mm
07:37 AM 33.6°F0.9°C 32.5°F0.3°C 96% Calm Calm -- 29.34 in993.6 mb - 0.00 in0.0 mm 0.01 in0.3 mm
07:42 AM 33.6°F0.9°C 32.5°F0.3°C 96% Calm Calm -- 29.34 in993.6 mb - 0.00 in0.0 mm 0.01 in0.3 mm
07:47 AM 33.6°F0.9°C 32.5°F0.3°C 96% Calm Calm -- 29.34 in993.6 mb - 0.00 in0.0 mm 0.02 in0.5 mm
07:52 AM 33.6°F0.9°C 32.5°F0.3°C 96% Calm Calm -- 29.34 in993.6 mb - 0.00 in0.0 mm 0.02 in0.5 mm
07:57 AM 33.8°F1.0°C 32.7°F0.4°C 96% Calm Calm -- 29.35 in993.9 mb - 0.03 in0.8 mm 0.02 in0.5 mm
08:02 AM 33.8°F1.0°C 32.7°F0.4°C 96% Calm Calm -- 29.34 in993.6 mb - 0.03 in0.8 mm 0.02 in0.5 mm
08:07 AM 33.8°F1.0°C 32.7°F0.4°C 96% Calm Calm -- 29.34 in993.6 mb - 0.03 in0.8 mm 0.02 in0.5 mm
08:12 AM 33.6°F0.9°C 32.5°F0.3°C 96% Calm Calm -- 29.34 in993.6 mb - 0.00 in0.0 mm 0.02 in0.5 mm
08:17 AM 33.6°F0.9°C 32.5°F0.3°C 96% Calm Calm -- 29.34 in993.6 mb - 0.00 in0.0 mm 0.03 in0.8 mm
08:22 AM 33.8°F1.0°C 32.7°F0.4°C 96% Calm Calm -- 29.34 in993.6 mb - 0.00 in0.0 mm 0.03 in0.8 mm
08:27 AM 33.8°F1.0°C 32.7°F0.4°C 96% Calm Calm -- 29.34 in993.6 mb - 0.00 in0.0 mm 0.03 in0.8 mm
08:32 AM 33.8°F1.0°C 32.7°F0.4°C 96% Calm Calm -- 29.34 in993.6 mb - 0.00 in0.0 mm 0.03 in0.8 mm
08:37 AM 34.0°F1.1°C 32.9°F0.5°C 96% Calm Calm -- 29.34 in993.6 mb - 0.00 in0.0 mm 0.03 in0.8 mm
08:42 AM 34.0°F1.1°C 32.9°F0.5°C 96% Calm Calm -- 29.34 in993.6 mb - 0.00 in0.0 mm 0.03 in0.8 mm
08:47 AM 34.0°F1.1°C 32.9°F0.5°C 96% Calm Calm -- 29.34 in993.6 mb - 0.00 in0.0 mm 0.03 in0.8 mm
08:52 AM 34.2°F1.2°C 33.1°F0.6°C 96% Calm Calm -- 29.34 in993.6 mb - 0.00 in0.0 mm 0.03 in0.8 mm
08:57 AM 34.2°F1.2°C 33.1°F0.6°C 96% Calm Calm -- 29.34 in993.6 mb - 0.00 in0.0 mm 0.03 in0.8 mm
09:02 AM 34.3°F1.3°C 33.3°F0.7°C 96% Calm Calm -- 29.34 in993.6 mb - 0.00 in0.0 mm 0.03 in0.8 mm
09:07 AM 34.3°F1.3°C 33.3°F0.7°C 96% Calm Calm -- 29.34 in993.6 mb - 0.00 in0.0 mm 0.04 in1.0 mm
09:12 AM 34.3°F1.3°C 33.3°F0.7°C 96% Calm Calm -- 29.34 in993.6 mb - 0.00 in0.0 mm 0.04 in1.0 mm
09:17 AM 34.3°F1.3°C 33.3°F0.7°C 96% Calm Calm -- 29.34 in993.6 mb - 0.00 in0.0 mm 0.04 in1.0 mm
09:22 AM 34.5°F1.4°C 33.4°F0.8°C 96% Calm Calm -- 29.35 in993.9 mb - 0.00 in0.0 mm 0.04 in1.0 mm
09:27 AM 34.5°F1.4°C 33.4°F0.8°C 96% Calm Calm -- 29.35 in993.9 mb - 0.00 in0.0 mm 0.05 in1.3 mm
09:32 AM 34.5°F1.4°C 33.4°F0.8°C 96% Calm Calm -- 29.35 in993.9 mb - 0.00 in0.0 mm 0.05 in1.3 mm
09:37 AM 34.5°F1.4°C 33.4°F0.8°C 96% Calm Calm -- 29.35 in993.9 mb - 0.00 in0.0 mm 0.05 in1.3 mm
09:42 AM 34.5°F1.4°C 33.4°F0.8°C 96% Calm Calm -- 29.35 in993.9 mb - 0.00 in0.0 mm 0.05 in1.3 mm
09:47 AM 34.5°F1.4°C 33.4°F0.8°C 96% Calm Calm -- 29.35 in993.9 mb - 0.00 in0.0 mm 0.06 in1.5 mm
09:52 AM 34.5°F1.4°C 33.4°F0.8°C 96% Calm Calm -- 29.35 in993.9 mb - 0.00 in0.0 mm 0.06 in1.5 mm
09:57 AM 34.5°F1.4°C 33.4°F0.8°C 96% Calm Calm -- 29.35 in993.9 mb - 0.04 in1.0 mm 0.06 in1.5 mm
10:02 AM 34.5°F1.4°C 33.4°F0.8°C 96% Calm Calm -- 29.35 in993.9 mb - 0.04 in1.0 mm 0.06 in1.5 mm
10:07 AM 34.7°F1.5°C 33.6°F0.9°C 96% Calm Calm -- 29.36 in994.2 mb - 0.03 in0.8 mm 0.06 in1.5 mm
10:12 AM 34.7°F1.5°C 33.6°F0.9°C 96% Calm Calm -- 29.35 in993.9 mb - 0.03 in0.8 mm 0.06 in1.5 mm
10:17 AM 34.9°F1.6°C 34.2°F1.2°C 97% Calm Calm -- 29.35 in993.9 mb - 0.03 in0.8 mm 0.07 in1.8 mm
10:22 AM 34.9°F1.6°C 33.8°F1.0°C 96% Calm Calm -- 29.35 in993.9 mb - 0.03 in0.8 mm 0.07 in1.8 mm
10:27 AM 35.1°F1.7°C 34.0°F1.1°C 96% Calm Calm -- 29.35 in993.9 mb - 0.03 in0.8 mm 0.07 in1.8 mm
10:32 AM 35.1°F1.7°C 34.0°F1.1°C 96% Calm Calm -- 29.35 in993.9 mb - 0.03 in0.8 mm 0.08 in2.0 mm
10:37 AM 35.1°F1.7°C 34.0°F1.1°C 96% Calm Calm -- 29.35 in993.9 mb - 0.04 in1.0 mm 0.08 in2.0 mm
10:42 AM 35.2°F1.8°C 34.2°F1.2°C 96% Calm Calm -- 29.35 in993.9 mb - 0.04 in1.0 mm 0.09 in2.3 mm
10:47 AM 35.2°F1.8°C 34.5°F1.4°C 97% Calm Calm -- 29.35 in993.9 mb - 0.06 in1.5 mm 0.09 in2.3 mm
10:52 AM 35.2°F1.8°C 34.5°F1.4°C 97% Calm Calm -- 29.35 in993.9 mb - 0.08 in2.0 mm 0.09 in2.3 mm
10:57 AM 35.4°F1.9°C 34.7°F1.5°C 97% Calm Calm -- 29.35 in993.9 mb - 0.09 in2.3 mm 0.10 in2.5 mm
11:02 AM 35.6°F2.0°C 34.9°F1.6°C 97% Calm Calm -- 29.35 in993.9 mb - 0.07 in1.8 mm 0.11 in2.8 mm
11:07 AM 36.0°F2.2°C 35.2°F1.8°C 97% Calm Calm -- 29.35 in993.9 mb - 0.07 in1.8 mm 0.12 in3.0 mm
11:12 AM 36.0°F2.2°C 35.2°F1.8°C 97% Calm Calm -- 29.34 in993.6 mb - 0.08 in2.0 mm 0.13 in3.3 mm
11:17 AM 36.0°F2.2°C 35.2°F1.8°C 97% Calm Calm -- 29.35 in993.9 mb - 0.06 in1.5 mm 0.13 in3.3 mm
11:22 AM 35.8°F2.1°C 34.7°F1.5°C 96% Calm Calm -- 29.34 in993.6 mb - 0.06 in1.5 mm 0.13 in3.3 mm
11:27 AM 35.8°F2.1°C 34.7°F1.5°C 96% Calm Calm -- 29.34 in993.6 mb - 0.05 in1.3 mm 0.13 in3.3 mm
11:32 AM 36.0°F2.2°C 35.2°F1.8°C 97% Calm Calm -- 29.34 in993.6 mb - 0.05 in1.3 mm 0.14 in3.6 mm
11:37 AM 36.1°F2.3°C 35.4°F1.9°C 97% Calm Calm -- 29.34 in993.6 mb - 0.05 in1.3 mm 0.14 in3.6 mm
11:42 AM 36.1°F2.3°C 35.4°F1.9°C 97% Calm Calm -- 29.34 in993.6 mb - 0.05 in1.3 mm 0.15 in3.8 mm
11:47 AM 36.1°F2.3°C 35.4°F1.9°C 97% Calm Calm -- 29.33 in993.2 mb - 0.05 in1.3 mm 0.15 in3.8 mm
11:52 AM 36.3°F2.4°C 35.6°F2.0°C 97% Calm Calm -- 29.33 in993.2 mb - 0.03 in0.8 mm 0.15 in3.8 mm
11:57 AM 36.3°F2.4°C 35.6°F2.0°C 97% Calm Calm -- 29.33 in993.2 mb - 0.03 in0.8 mm 0.16 in4.1 mm
12:02 PM 36.3°F2.4°C 35.6°F2.0°C 97% Calm Calm -- 29.32 in992.9 mb - 0.03 in0.8 mm 0.16 in4.1 mm
12:07 PM 36.3°F2.4°C 35.6°F2.0°C 97% Calm Calm -- 29.32 in992.9 mb - 0.03 in0.8 mm 0.16 in4.1 mm
12:12 PM 36.3°F2.4°C 35.6°F2.0°C 97% Calm Calm -- 29.31 in992.6 mb - 0.00 in0.0 mm 0.16 in4.1 mm
12:17 PM 36.3°F2.4°C 35.6°F2.0°C 97% Calm Calm -- 29.31 in992.6 mb - 0.00 in0.0 mm 0.17 in4.3 mm
12:22 PM 36.5°F2.5°C 35.4°F1.9°C 96% Calm Calm -- 29.31 in992.6 mb - 0.00 in0.0 mm 0.17 in4.3 mm
12:27 PM 36.3°F2.4°C 35.2°F1.8°C 96% Calm Calm -- 29.30 in992.2 mb - 0.00 in0.0 mm 0.17 in4.3 mm
12:32 PM 36.7°F2.6°C 36.0°F2.2°C 97% Calm Calm -- 29.30 in992.2 mb - 0.00 in0.0 mm 0.17 in4.3 mm
12:37 PM 36.7°F2.6°C 35.6°F2.0°C 96% Calm Calm -- 29.29 in991.9 mb - 0.00 in0.0 mm 0.17 in4.3 mm
12:42 PM 37.0°F2.8°C 36.3°F2.4°C 97% Calm Calm -- 29.29 in991.9 mb - 0.00 in0.0 mm 0.17 in4.3 mm
12:47 PM 37.2°F2.9°C 36.5°F2.5°C 97% Calm Calm -- 29.29 in991.9 mb - 0.00 in0.0 mm 0.17 in4.3 mm
12:52 PM 37.2°F2.9°C 36.1°F2.3°C 96% Calm Calm -- 29.29 in991.9 mb - 0.00 in0.0 mm 0.17 in4.3 mm
12:57 PM 37.2°F2.9°C 36.1°F2.3°C 96% Calm Calm -- 29.29 in991.9 mb - 0.00 in0.0 mm 0.17 in4.3 mm
01:02 PM 37.6°F3.1°C 36.5°F2.5°C 96% Calm Calm -- 29.27 in991.2 mb - 0.00 in0.0 mm 0.17 in4.3 mm
01:07 PM 37.6°F3.1°C 36.5°F2.5°C 96% Calm Calm -- 29.27 in991.2 mb - 0.00 in0.0 mm 0.18 in4.6 mm
01:12 PM 37.6°F3.1°C 36.5°F2.5°C 96% Calm Calm -- 29.26 in990.9 mb - 0.00 in0.0 mm 0.18 in4.6 mm
01:17 PM 37.4°F3.0°C 36.3°F2.4°C 96% Calm Calm -- 29.27 in991.2 mb - 0.00 in0.0 mm 0.18 in4.6 mm
01:22 PM 37.2°F2.9°C 36.1°F2.3°C 96% Calm Calm -- 29.27 in991.2 mb - 0.00 in0.0 mm 0.18 in4.6 mm
01:27 PM 37.0°F2.8°C 36.0°F2.2°C 96% Calm Calm -- 29.27 in991.2 mb - 0.00 in0.0 mm 0.18 in4.6 mm
01:32 PM 37.2°F2.9°C 36.1°F2.3°C 96% Calm Calm -- 29.27 in991.2 mb - 0.00 in0.0 mm 0.18 in4.6 mm
01:37 PM 37.0°F2.8°C 36.0°F2.2°C 96% Calm Calm -- 29.26 in990.9 mb - 0.00 in0.0 mm 0.18 in4.6 mm
01:42 PM 37.0°F2.8°C 36.0°F2.2°C 96% Calm Calm -- 29.26 in990.9 mb - 0.00 in0.0 mm 0.18 in4.6 mm
01:47 PM 36.9°F2.7°C 35.8°F2.1°C 96% Calm Calm -- 29.26 in990.9 mb - 0.00 in0.0 mm 0.18 in4.6 mm
01:52 PM 36.9°F2.7°C 35.8°F2.1°C 96% Calm Calm -- 29.26 in990.9 mb - 0.00 in0.0 mm 0.18 in4.6 mm
01:57 PM 36.9°F2.7°C 35.8°F2.1°C 96% Calm Calm -- 29.26 in990.9 mb - 0.00 in0.0 mm 0.18 in4.6 mm
02:02 PM 36.7°F2.6°C 35.6°F2.0°C 96% Calm Calm -- 29.25 in990.5 mb - 0.00 in0.0 mm 0.18 in4.6 mm
02:07 PM 36.7°F2.6°C 35.6°F2.0°C 96% Calm Calm -- 29.25 in990.5 mb - 0.00 in0.0 mm 0.18 in4.6 mm
02:12 PM 36.7°F2.6°C 35.6°F2.0°C 96% Calm Calm -- 29.25 in990.5 mb - 0.00 in0.0 mm 0.18 in4.6 mm
02:17 PM 36.9°F2.7°C 35.8°F2.1°C 96% Calm Calm -- 29.25 in990.5 mb - 0.00 in0.0 mm 0.18 in4.6 mm
02:22 PM 36.9°F2.7°C 35.8°F2.1°C 96% Calm Calm -- 29.25 in990.5 mb - 0.00 in0.0 mm 0.18 in4.6 mm
02:27 PM 37.0°F2.8°C 36.0°F2.2°C 96% Calm Calm -- 29.25 in990.5 mb - 0.00 in0.0 mm 0.18 in4.6 mm
02:32 PM 37.0°F2.8°C 35.8°F2.1°C 95% Calm Calm -- 29.25 in990.5 mb - 0.00 in0.0 mm 0.19 in4.8 mm
02:37 PM 36.9°F2.7°C 35.6°F2.0°C 95% Calm Calm -- 29.25 in990.5 mb - 0.00 in0.0 mm 0.19 in4.8 mm
02:42 PM 36.9°F2.7°C 35.6°F2.0°C 95% Calm Calm -- 29.25 in990.5 mb - 0.00 in0.0 mm 0.19 in4.8 mm
02:47 PM 36.9°F2.7°C 35.6°F2.0°C 95% Calm Calm -- 29.25 in990.5 mb - 0.00 in0.0 mm 0.19 in4.8 mm
02:52 PM 36.9°F2.7°C 35.6°F2.0°C 95% Calm Calm -- 29.24 in990.2 mb - 0.00 in0.0 mm 0.19 in4.8 mm
02:57 PM 36.9°F2.7°C 35.6°F2.0°C 95% Calm Calm -- 29.24 in990.2 mb - 0.00 in0.0 mm 0.19 in4.8 mm
03:02 PM 36.7°F2.6°C 35.4°F1.9°C 95% Calm Calm -- 29.25 in990.5 mb - 0.00 in0.0 mm 0.19 in4.8 mm
03:07 PM 36.9°F2.7°C 35.6°F2.0°C 95% Calm Calm -- 29.25 in990.5 mb - 0.00 in0.0 mm 0.20 in5.1 mm
03:12 PM 37.0°F2.8°C 35.8°F2.1°C 95% Calm Calm -- 29.24 in990.2 mb - 0.00 in0.0 mm 0.20 in5.1 mm
03:17 PM 36.9°F2.7°C 35.6°F2.0°C 95% Calm Calm -- 29.24 in990.2 mb - 0.00 in0.0 mm 0.20 in5.1 mm
03:22 PM 36.7°F2.6°C 35.4°F1.9°C 95% 0.9 mph SSE1.4 kmh SSE -- 29.24 in990.2 mb - 0.03 in0.8 mm 0.20 in5.1 mm
03:27 PM 36.5°F2.5°C 35.2°F1.8°C 95% 0.9 mph SE1.4 kmh SE 2.9 mph4.7 kmh 29.24 in990.2 mb - 0.03 in0.8 mm 0.20 in5.1 mm
03:32 PM 36.3°F2.4°C 35.1°F1.7°C 95% 0.9 mph SE1.4 kmh SE -- 29.24 in990.2 mb - 0.04 in1.0 mm 0.20 in5.1 mm
03:37 PM 36.3°F2.4°C 35.1°F1.7°C 95% 0.9 mph SE1.4 kmh SE -- 29.24 in990.2 mb - 0.04 in1.0 mm 0.21 in5.3 mm
03:42 PM 36.1°F2.3°C 34.9°F1.6°C 95% Calm Calm -- 29.24 in990.2 mb - 0.04 in1.0 mm 0.21 in5.3 mm
03:47 PM 36.1°F2.3°C 34.9°F1.6°C 95% Calm Calm -- 29.24 in990.2 mb - 0.03 in0.8 mm 0.21 in5.3 mm
03:52 PM 36.1°F2.3°C 34.9°F1.6°C 95% Calm Calm -- 29.24 in990.2 mb - 0.00 in0.0 mm 0.21 in5.3 mm
03:57 PM 36.0°F2.2°C 34.7°F1.5°C 95% Calm Calm -- 29.23 in989.8 mb - 0.00 in0.0 mm 0.22 in5.6 mm
04:02 PM 36.0°F2.2°C 34.7°F1.5°C 95% Calm Calm -- 29.23 in989.8 mb - 0.00 in0.0 mm 0.22 in5.6 mm
04:07 PM 36.0°F2.2°C 34.7°F1.5°C 95% Calm Calm -- 29.23 in989.8 mb - 0.00 in0.0 mm 0.22 in5.6 mm
04:12 PM 36.0°F2.2°C 34.7°F1.5°C 95% Calm Calm -- 29.22 in989.5 mb - 0.00 in0.0 mm 0.22 in5.6 mm
04:17 PM 35.8°F2.1°C 34.5°F1.4°C 95% Calm Calm -- 29.23 in989.8 mb - 0.00 in0.0 mm 0.23 in5.8 mm
04:22 PM 35.6°F2.0°C 34.3°F1.3°C 95% Calm Calm -- 29.23 in989.8 mb - 0.00 in0.0 mm 0.23 in5.8 mm
04:27 PM 35.4°F1.9°C 34.2°F1.2°C 95% Calm Calm -- 29.23 in989.8 mb - 0.00 in0.0 mm 0.23 in5.8 mm
04:32 PM 35.4°F1.9°C 34.2°F1.2°C 95% Calm Calm -- 29.23 in989.8 mb - 0.00 in0.0 mm 0.23 in5.8 mm
04:37 PM 35.4°F1.9°C 34.2°F1.2°C 95% Calm Calm -- 29.22 in989.5 mb - 0.00 in0.0 mm 0.23 in5.8 mm
04:42 PM 35.2°F1.8°C 34.0°F1.1°C 95% Calm Calm -- 29.22 in989.5 mb - 0.00 in0.0 mm 0.23 in5.8 mm
04:47 PM 35.2°F1.8°C 34.0°F1.1°C 95% Calm Calm -- 29.21 in989.2 mb - 0.00 in0.0 mm 0.23 in5.8 mm
04:52 PM 35.2°F1.8°C 34.0°F1.1°C 95% Calm Calm -- 29.21 in989.2 mb - 0.00 in0.0 mm 0.23 in5.8 mm
04:57 PM 35.1°F1.7°C 33.8°F1.0°C 95% Calm Calm -- 29.21 in989.2 mb - 0.00 in0.0 mm 0.23 in5.8 mm
05:02 PM 35.1°F1.7°C 33.8°F1.0°C 95% Calm Calm -- 29.21 in989.2 mb - 0.00 in0.0 mm 0.24 in6.1 mm
05:07 PM 35.1°F1.7°C 33.8°F1.0°C 95% Calm Calm -- 29.21 in989.2 mb - 0.00 in0.0 mm 0.24 in6.1 mm
05:12 PM 35.1°F1.7°C 33.8°F1.0°C 95% Calm Calm -- 29.21 in989.2 mb - 0.00 in0.0 mm 0.24 in6.1 mm
05:17 PM 35.1°F1.7°C 33.8°F1.0°C 95% Calm Calm -- 29.21 in989.2 mb - 0.00 in0.0 mm 0.24 in6.1 mm
05:22 PM 35.1°F1.7°C 33.8°F1.0°C 95% Calm Calm -- 29.21 in989.2 mb - 0.00 in0.0 mm 0.24 in6.1 mm
05:27 PM 35.1°F1.7°C 33.8°F1.0°C 95% Calm Calm -- 29.21 in989.2 mb - 0.00 in0.0 mm 0.24 in6.1 mm
05:32 PM 34.9°F1.6°C 33.6°F0.9°C 95% Calm Calm -- 29.21 in989.2 mb - 0.00 in0.0 mm 0.24 in6.1 mm
05:37 PM 34.9°F1.6°C 33.6°F0.9°C 95% Calm Calm -- 29.21 in989.2 mb - 0.00 in0.0 mm 0.25 in6.4 mm
05:42 PM 34.9°F1.6°C 33.6°F0.9°C 95% Calm Calm -- 29.21 in989.2 mb - 0.00 in0.0 mm 0.25 in6.4 mm
05:47 PM 34.9°F1.6°C 33.6°F0.9°C 95% Calm Calm -- 29.21 in989.2 mb - 0.04 in1.0 mm 0.25 in6.4 mm
05:52 PM 34.9°F1.6°C 33.6°F0.9°C 95% Calm Calm -- 29.22 in989.5 mb - 0.04 in1.0 mm 0.26 in6.6 mm
05:57 PM 34.9°F1.6°C 33.6°F0.9°C 95% Calm Calm -- 29.22 in989.5 mb - 0.04 in1.0 mm 0.26 in6.6 mm
06:02 PM 34.9°F1.6°C 33.6°F0.9°C 95% Calm Calm -- 29.22 in989.5 mb - 0.04 in1.0 mm 0.27 in6.9 mm
06:07 PM 34.9°F1.6°C 33.6°F0.9°C 95% Calm Calm -- 29.22 in989.5 mb - 0.04 in1.0 mm 0.27 in6.9 mm
06:12 PM 34.9°F1.6°C 33.6°F0.9°C 95% Calm Calm -- 29.22 in989.5 mb - 0.05 in1.3 mm 0.27 in6.9 mm
06:17 PM 34.9°F1.6°C 33.6°F0.9°C 95% Calm Calm -- 29.22 in989.5 mb - 0.05 in1.3 mm 0.28 in7.1 mm
06:22 PM 34.9°F1.6°C 33.6°F0.9°C 95% Calm Calm -- 29.23 in989.8 mb - 0.03 in0.8 mm 0.28 in7.1 mm
06:27 PM 34.9°F1.6°C 33.6°F0.9°C 95% Calm Calm -- 29.22 in989.5 mb - 0.03 in0.8 mm 0.28 in7.1 mm
06:32 PM 34.5°F1.4°C 33.3°F0.7°C 95% Calm Calm -- 29.22 in989.5 mb - 0.03 in0.8 mm 0.28 in7.1 mm
06:37 PM 34.5°F1.4°C 33.3°F0.7°C 95% Calm Calm -- 29.23 in989.8 mb - 0.03 in0.8 mm 0.28 in7.1 mm
06:42 PM 34.5°F1.4°C 33.3°F0.7°C 95% Calm Calm -- 29.23 in989.8 mb - 0.03 in0.8 mm 0.29 in7.4 mm
06:47 PM 34.5°F1.4°C 33.3°F0.7°C 95% Calm Calm -- 29.24 in990.2 mb - 0.03 in0.8 mm 0.29 in7.4 mm
06:52 PM 34.3°F1.3°C 33.1°F0.6°C 95% Calm Calm -- 29.24 in990.2 mb - 0.04 in1.0 mm 0.29 in7.4 mm
06:57 PM 34.3°F1.3°C 33.1°F0.6°C 95% Calm Calm -- 29.24 in990.2 mb - 0.04 in1.0 mm 0.30 in7.6 mm
07:02 PM 34.3°F1.3°C 33.1°F0.6°C 95% Calm Calm -- 29.24 in990.2 mb - 0.04 in1.0 mm 0.30 in7.6 mm
07:07 PM 34.2°F1.2°C 32.9°F0.5°C 95% Calm Calm -- 29.24 in990.2 mb - 0.04 in1.0 mm 0.31 in7.9 mm
07:12 PM 34.2°F1.2°C 32.9°F0.5°C 95% Calm Calm -- 29.24 in990.2 mb - 0.04 in1.0 mm 0.31 in7.9 mm
07:17 PM 34.2°F1.2°C 32.9°F0.5°C 95% Calm Calm -- 29.24 in990.2 mb - 0.03 in0.8 mm 0.31 in7.9 mm
07:22 PM 34.0°F1.1°C 32.7°F0.4°C 95% Calm Calm -- 29.24 in990.2 mb - 0.00 in0.0 mm 0.31 in7.9 mm
07:27 PM 34.0°F1.1°C 32.7°F0.4°C 95% Calm Calm -- 29.24 in990.2 mb - 0.00 in0.0 mm 0.31 in7.9 mm
07:32 PM 33.8°F1.0°C 32.5°F0.3°C 95% Calm Calm -- 29.25 in990.5 mb - 0.00 in0.0 mm 0.31 in7.9 mm
07:37 PM 33.6°F0.9°C 32.4°F0.2°C 95% Calm Calm -- 29.25 in990.5 mb - 0.00 in0.0 mm 0.31 in7.9 mm
07:42 PM 33.6°F0.9°C 32.4°F0.2°C 95% Calm Calm -- 29.25 in990.5 mb - 0.00 in0.0 mm 0.31 in7.9 mm
07:47 PM 33.6°F0.9°C 32.4°F0.2°C 95% Calm Calm -- 29.25 in990.5 mb - 0.00 in0.0 mm 0.31 in7.9 mm
07:52 PM 33.4°F0.8°C 32.2°F0.1°C 95% Calm Calm -- 29.25 in990.5 mb - 0.00 in0.0 mm 0.31 in7.9 mm
07:57 PM 33.4°F0.8°C 32.2°F0.1°C 95% Calm Calm -- 29.26 in990.9 mb - 0.00 in0.0 mm 0.31 in7.9 mm
08:02 PM 33.4°F0.8°C 32.2°F0.1°C 95% Calm Calm -- 29.26 in990.9 mb - 0.00 in0.0 mm 0.31 in7.9 mm
08:07 PM 33.4°F0.8°C 32.2°F0.1°C 95% Calm Calm -- 29.26 in990.9 mb - 0.00 in0.0 mm 0.31 in7.9 mm
08:12 PM 33.3°F0.7°C 32.0°F0.0°C 95% Calm Calm -- 29.26 in990.9 mb - 0.00 in0.0 mm 0.31 in7.9 mm
08:17 PM 33.3°F0.7°C 32.0°F0.0°C 95% Calm Calm -- 29.26 in990.9 mb - 0.00 in0.0 mm 0.31 in7.9 mm
08:22 PM 33.1°F0.6°C 31.8°F-0.1°C 95% Calm Calm -- 29.26 in990.9 mb - 0.00 in0.0 mm 0.31 in7.9 mm
08:27 PM 33.1°F0.6°C 31.8°F-0.1°C 95% Calm Calm -- 29.26 in990.9 mb - 0.00 in0.0 mm 0.31 in7.9 mm
08:32 PM 33.1°F0.6°C 31.8°F-0.1°C 95% Calm Calm -- 29.26 in990.9 mb - 0.00 in0.0 mm 0.31 in7.9 mm
08:37 PM 33.1°F0.6°C 31.8°F-0.1°C 95% Calm Calm -- 29.26 in990.9 mb - 0.00 in0.0 mm 0.31 in7.9 mm
08:42 PM 32.9°F0.5°C 31.6°F-0.2°C 95% Calm Calm -- 29.25 in990.5 mb - 0.00 in0.0 mm 0.31 in7.9 mm
08:47 PM 32.9°F0.5°C 31.6°F-0.2°C 95% Calm Calm -- 29.26 in990.9 mb - 0.00 in0.0 mm 0.31 in7.9 mm
08:52 PM 32.9°F0.5°C 31.6°F-0.2°C 95% Calm Calm -- 29.25 in990.5 mb - 0.00 in0.0 mm 0.31 in7.9 mm
08:57 PM 32.7°F0.4°C 31.5°F-0.3°C 95% Calm Calm -- 29.25 in990.5 mb - 0.00 in0.0 mm 0.31 in7.9 mm
09:02 PM 32.7°F0.4°C 31.5°F-0.3°C 95% Calm Calm -- 29.25 in990.5 mb - 0.00 in0.0 mm 0.31 in7.9 mm
09:07 PM 32.9°F0.5°C 31.6°F-0.2°C 95% Calm Calm -- 29.26 in990.9 mb - 0.00 in0.0 mm 0.31 in7.9 mm
09:12 PM 33.1°F0.6°C 31.8°F-0.1°C 95% Calm Calm -- 29.25 in990.5 mb - 0.13 in3.3 mm 0.33 in8.4 mm
09:17 PM 33.1°F0.6°C 31.8°F-0.1°C 95% Calm Calm -- 29.26 in990.9 mb - 0.15 in3.8 mm 0.33 in8.4 mm
09:22 PM 33.1°F0.6°C 32.0°F0.0°C 96% Calm Calm -- 29.26 in990.9 mb - 0.09 in2.3 mm 0.35 in8.9 mm
09:27 PM 33.1°F0.6°C 31.8°F-0.1°C 95% Calm Calm -- 29.26 in990.9 mb - 0.05 in1.3 mm 0.35 in8.9 mm
09:32 PM 33.1°F0.6°C 31.8°F-0.1°C 95% Calm Calm -- 29.26 in990.9 mb - 0.03 in0.8 mm 0.35 in8.9 mm
09:37 PM 33.1°F0.6°C 32.0°F0.0°C 96% Calm Calm -- 29.26 in990.9 mb - 0.03 in0.8 mm 0.35 in8.9 mm
09:42 PM 33.1°F0.6°C 32.0°F0.0°C 96% Calm Calm -- 29.26 in990.9 mb - 0.03 in0.8 mm 0.35 in8.9 mm
09:47 PM 33.3°F0.7°C 32.2°F0.1°C 96% Calm Calm -- 29.27 in991.2 mb - 0.03 in0.8 mm 0.35 in8.9 mm
09:52 PM 33.3°F0.7°C 32.2°F0.1°C 96% Calm Calm -- 29.27 in991.2 mb - 0.00 in0.0 mm 0.35 in8.9 mm
09:57 PM 33.3°F0.7°C 32.2°F0.1°C 96% Calm Calm -- 29.27 in991.2 mb - 0.00 in0.0 mm 0.35 in8.9 mm
10:02 PM 33.1°F0.6°C 32.0°F0.0°C 96% Calm Calm -- 29.27 in991.2 mb - 0.00 in0.0 mm 0.35 in8.9 mm
10:07 PM 33.1°F0.6°C 32.0°F0.0°C 96% Calm Calm -- 29.27 in991.2 mb - 0.00 in0.0 mm 0.35 in8.9 mm
10:12 PM 33.1°F0.6°C 32.0°F0.0°C 96% Calm Calm -- 29.27 in991.2 mb - 0.00 in0.0 mm 0.35 in8.9 mm
10:17 PM 33.1°F0.6°C 32.0°F0.0°C 96% Calm Calm -- 29.27 in991.2 mb - 0.00 in0.0 mm 0.35 in8.9 mm
10:22 PM 33.3°F0.7°C 32.2°F0.1°C 96% Calm Calm -- 29.27 in991.2 mb - 0.00 in0.0 mm 0.35 in8.9 mm
10:27 PM 33.3°F0.7°C 32.2°F0.1°C 96% Calm Calm -- 29.27 in991.2 mb - 0.00 in0.0 mm 0.35 in8.9 mm
10:32 PM 33.3°F0.7°C 32.2°F0.1°C 96% Calm Calm -- 29.27 in991.2 mb - 0.00 in0.0 mm 0.35 in8.9 mm
10:37 PM 33.3°F0.7°C 32.2°F0.1°C 96% Calm Calm -- 29.27 in991.2 mb - 0.00 in0.0 mm 0.35 in8.9 mm
10:42 PM 33.1°F0.6°C 32.0°F0.0°C 96% Calm Calm -- 29.27 in991.2 mb - 0.00 in0.0 mm 0.35 in8.9 mm
10:47 PM 33.1°F0.6°C 32.0°F0.0°C 96% Calm Calm -- 29.27 in991.2 mb - 0.00 in0.0 mm 0.35 in8.9 mm
10:52 PM 33.3°F0.7°C 32.2°F0.1°C 96% Calm Calm -- 29.27 in991.2 mb - 0.00 in0.0 mm 0.35 in8.9 mm
10:57 PM 33.1°F0.6°C 32.0°F0.0°C 96% Calm Calm -- 29.27 in991.2 mb - 0.00 in0.0 mm 0.35 in8.9 mm
11:02 PM 33.1°F0.6°C 32.0°F0.0°C 96% Calm Calm -- 29.27 in991.2 mb - 0.00 in0.0 mm 0.35 in8.9 mm
11:07 PM 33.1°F0.6°C 32.0°F0.0°C 96% Calm Calm -- 29.27 in991.2 mb - 0.00 in0.0 mm 0.35 in8.9 mm
11:12 PM 33.3°F0.7°C 32.2°F0.1°C 96% Calm Calm -- 29.26 in990.9 mb - 0.00 in0.0 mm 0.35 in8.9 mm
11:17 PM 33.3°F0.7°C 32.2°F0.1°C 96% Calm Calm -- 29.26 in990.9 mb - 0.00 in0.0 mm 0.35 in8.9 mm
11:22 PM 33.3°F0.7°C 32.2°F0.1°C 96% Calm Calm -- 29.27 in991.2 mb - 0.00 in0.0 mm 0.35 in8.9 mm
11:27 PM 33.3°F0.7°C 32.2°F0.1°C 96% Calm Calm -- 29.27 in991.2 mb - 0.00 in0.0 mm 0.35 in8.9 mm
11:32 PM 33.3°F0.7°C 32.2°F0.1°C 96% Calm Calm -- 29.27 in991.2 mb - 0.00 in0.0 mm 0.35 in8.9 mm
11:37 PM 33.3°F0.7°C 32.2°F0.1°C 96% Calm Calm -- 29.27 in991.2 mb - 0.00 in0.0 mm 0.35 in8.9 mm
11:42 PM 33.1°F0.6°C 32.0°F0.0°C 96% Calm Calm -- 29.27 in991.2 mb - 0.00 in0.0 mm 0.35 in8.9 mm
11:47 PM 33.1°F0.6°C 32.0°F0.0°C 96% Calm Calm -- 29.28 in991.5 mb - 0.00 in0.0 mm 0.35 in8.9 mm
11:52 PM 33.1°F0.6°C 32.0°F0.0°C 96% Calm Calm -- 29.28 in991.5 mb - 0.00 in0.0 mm 0.35 in8.9 mm
11:57 PM 33.1°F0.6°C 32.0°F0.0°C 96% Calm Calm -- 29.28 in991.5 mb - 0.00 in0.0 mm 0.35 in8.9 mm